sensor_id;sensor_type;location;lat;lon;timestamp;temperature;humidity
53498;DHT22;39382;47.168;16.008;2023-11-21T00:02:20;5.40;99.90
53498;DHT22;39382;47.168;16.008;2023-11-21T00:04:46;5.40;99.90
53498;DHT22;39382;47.168;16.008;2023-11-21T00:07:12;5.40;99.90
53498;DHT22;39382;47.168;16.008;2023-11-21T00:09:38;5.40;99.90
53498;DHT22;39382;47.168;16.008;2023-11-21T00:12:04;5.40;99.90
53498;DHT22;39382;47.168;16.008;2023-11-21T00:14:29;5.40;99.90
53498;DHT22;39382;47.168;16.008;2023-11-21T00:16:55;5.50;99.90
53498;DHT22;39382;47.168;16.008;2023-11-21T00:19:21;5.40;99.90
53498;DHT22;39382;47.168;16.008;2023-11-21T00:21:46;5.40;99.90
53498;DHT22;39382;47.168;16.008;2023-11-21T00:24:12;5.60;99.90
53498;DHT22;39382;47.168;16.008;2023-11-21T00:26:39;5.40;99.90
53498;DHT22;39382;47.168;16.008;2023-11-21T00:29:05;5.50;99.90
53498;DHT22;39382;47.168;16.008;2023-11-21T00:31:36;5.50;99.90
53498;DHT22;39382;47.168;16.008;2023-11-21T00:34:05;5.50;99.90
53498;DHT22;39382;47.168;16.008;2023-11-21T00:36:31;5.50;99.90
53498;DHT22;39382;47.168;16.008;2023-11-21T00:38:58;5.50;99.90
53498;DHT22;39382;47.168;16.008;2023-11-21T00:41:24;5.60;99.90
53498;DHT22;39382;47.168;16.008;2023-11-21T00:43:53;5.50;99.90
53498;DHT22;39382;47.168;16.008;2023-11-21T00:46:18;5.50;99.90
53498;DHT22;39382;47.168;16.008;2023-11-21T00:48:44;5.50;99.90
53498;DHT22;39382;47.168;16.008;2023-11-21T00:51:09;5.60;99.90
53498;DHT22;39382;47.168;16.008;2023-11-21T00:53:35;5.50;99.90
53498;DHT22;39382;47.168;16.008;2023-11-21T00:56:01;5.60;99.90
53498;DHT22;39382;47.168;16.008;2023-11-21T00:58:28;5.60;99.90
53498;DHT22;39382;47.168;16.008;2023-11-21T01:00:53;5.50;99.90
53498;DHT22;39382;47.168;16.008;2023-11-21T01:03:19;5.50;99.90
53498;DHT22;39382;47.168;16.008;2023-11-21T01:05:45;5.50;99.90
53498;DHT22;39382;47.168;16.008;2023-11-21T01:08:11;5.50;99.90
53498;DHT22;39382;47.168;16.008;2023-11-21T01:10:37;5.60;99.90
53498;DHT22;39382;47.168;16.008;2023-11-21T01:13:03;5.50;99.90
53498;DHT22;39382;47.168;16.008;2023-11-21T01:15:33;5.60;99.90
53498;DHT22;39382;47.168;16.008;2023-11-21T01:17:59;5.60;99.90
53498;DHT22;39382;47.168;16.008;2023-11-21T01:20:24;5.50;99.90
53498;DHT22;39382;47.168;16.008;2023-11-21T01:22:50;5.40;99.90
53498;DHT22;39382;47.168;16.008;2023-11-21T01:25:16;5.50;99.90
53498;DHT22;39382;47.168;16.008;2023-11-21T01:27:42;5.50;99.90
53498;DHT22;39382;47.168;16.008;2023-11-21T01:30:09;5.50;99.90
53498;DHT22;39382;47.168;16.008;2023-11-21T01:32:36;5.50;99.90
53498;DHT22;39382;47.168;16.008;2023-11-21T01:35:02;5.50;99.90
53498;DHT22;39382;47.168;16.008;2023-11-21T01:37:28;5.50;99.90
53498;DHT22;39382;47.168;16.008;2023-11-21T01:39:56;5.60;99.90
53498;DHT22;39382;47.168;16.008;2023-11-21T01:42:22;5.60;99.90
53498;DHT22;39382;47.168;16.008;2023-11-21T01:44:47;5.50;99.90
53498;DHT22;39382;47.168;16.008;2023-11-21T01:47:14;5.60;99.90
53498;DHT22;39382;47.168;16.008;2023-11-21T01:49:43;5.60;99.90
53498;DHT22;39382;47.168;16.008;2023-11-21T01:52:09;5.60;99.90
53498;DHT22;39382;47.168;16.008;2023-11-21T01:54:36;5.60;99.90
53498;DHT22;39382;47.168;16.008;2023-11-21T01:57:04;5.60;99.90
53498;DHT22;39382;47.168;16.008;2023-11-21T01:59:38;5.60;99.90
53498;DHT22;39382;47.168;16.008;2023-11-21T02:02:07;5.60;99.90
53498;DHT22;39382;47.168;16.008;2023-11-21T02:04:33;5.70;99.90
53498;DHT22;39382;47.168;16.008;2023-11-21T02:07:00;5.60;99.90
53498;DHT22;39382;47.168;16.008;2023-11-21T02:09:27;5.60;99.90
53498;DHT22;39382;47.168;16.008;2023-11-21T02:11:53;5.60;99.90
53498;DHT22;39382;47.168;16.008;2023-11-21T02:14:20;5.60;99.90
53498;DHT22;39382;47.168;16.008;2023-11-21T02:16:50;5.50;99.90
53498;DHT22;39382;47.168;16.008;2023-11-21T02:19:21;5.60;99.90
53498;DHT22;39382;47.168;16.008;2023-11-21T02:21:56;5.50;99.90
53498;DHT22;39382;47.168;16.008;2023-11-21T02:24:31;5.50;99.90
53498;DHT22;39382;47.168;16.008;2023-11-21T02:26:57;5.50;99.90
53498;DHT22;39382;47.168;16.008;2023-11-21T02:29:23;5.40;99.90
53498;DHT22;39382;47.168;16.008;2023-11-21T02:31:53;5.40;99.90
53498;DHT22;39382;47.168;16.008;2023-11-21T02:34:20;5.40;99.90
53498;DHT22;39382;47.168;16.008;2023-11-21T02:36:47;5.30;99.90
53498;DHT22;39382;47.168;16.008;2023-11-21T02:39:15;5.40;99.90
53498;DHT22;39382;47.168;16.008;2023-11-21T02:41:40;5.40;99.90
53498;DHT22;39382;47.168;16.008;2023-11-21T02:44:06;5.40;99.90
53498;DHT22;39382;47.168;16.008;2023-11-21T02:46:33;5.40;99.90
53498;DHT22;39382;47.168;16.008;2023-11-21T02:49:03;5.40;99.90
53498;DHT22;39382;47.168;16.008;2023-11-21T02:51:29;5.50;99.90
53498;DHT22;39382;47.168;16.008;2023-11-21T02:53:56;5.50;99.90
53498;DHT22;39382;47.168;16.008;2023-11-21T02:56:26;5.50;99.90
53498;DHT22;39382;47.168;16.008;2023-11-21T02:58:52;5.60;99.90
53498;DHT22;39382;47.168;16.008;2023-11-21T03:01:18;5.60;99.90
53498;DHT22;39382;47.168;16.008;2023-11-21T03:03:43;5.50;99.90
53498;DHT22;39382;47.168;16.008;2023-11-21T03:06:09;5.50;99.90
53498;DHT22;39382;47.168;16.008;2023-11-21T03:08:35;5.50;99.90
53498;DHT22;39382;47.168;16.008;2023-11-21T03:11:01;5.50;99.90
53498;DHT22;39382;47.168;16.008;2023-11-21T03:13:28;5.60;99.90
53498;DHT22;39382;47.168;16.008;2023-11-21T03:15:54;5.50;99.90
53498;DHT22;39382;47.168;16.008;2023-11-21T03:18:20;5.60;99.90
53498;DHT22;39382;47.168;16.008;2023-11-21T03:20:47;5.60;99.90
53498;DHT22;39382;47.168;16.008;2023-11-21T03:23:13;5.60;99.90
53498;DHT22;39382;47.168;16.008;2023-11-21T03:25:39;5.60;99.90
53498;DHT22;39382;47.168;16.008;2023-11-21T03:28:04;5.70;99.90
53498;DHT22;39382;47.168;16.008;2023-11-21T03:30:30;5.60;99.90
53498;DHT22;39382;47.168;16.008;2023-11-21T03:32:56;5.60;99.90
53498;DHT22;39382;47.168;16.008;2023-11-21T03:35:22;5.70;99.90
53498;DHT22;39382;47.168;16.008;2023-11-21T03:37:48;5.60;99.90
53498;DHT22;39382;47.168;16.008;2023-11-21T03:40:14;5.70;99.90
53498;DHT22;39382;47.168;16.008;2023-11-21T03:42:39;5.80;99.90
53498;DHT22;39382;47.168;16.008;2023-11-21T03:45:06;5.80;99.90
53498;DHT22;39382;47.168;16.008;2023-11-21T03:47:32;5.80;99.90
53498;DHT22;39382;47.168;16.008;2023-11-21T03:49:58;5.70;99.90
53498;DHT22;39382;47.168;16.008;2023-11-21T03:52:24;5.70;99.90
53498;DHT22;39382;47.168;16.008;2023-11-21T03:54:50;5.80;99.90
53498;DHT22;39382;47.168;16.008;2023-11-21T03:57:16;5.70;99.90
53498;DHT22;39382;47.168;16.008;2023-11-21T03:59:42;6.00;99.90
53498;DHT22;39382;47.168;16.008;2023-11-21T04:02:08;5.70;99.90
53498;DHT22;39382;47.168;16.008;2023-11-21T04:04:35;5.80;99.90
53498;DHT22;39382;47.168;16.008;2023-11-21T04:07:01;5.80;99.90
53498;DHT22;39382;47.168;16.008;2023-11-21T04:09:27;5.80;99.90
53498;DHT22;39382;47.168;16.008;2023-11-21T04:11:52;5.80;99.90
53498;DHT22;39382;47.168;16.008;2023-11-21T04:14:18;5.80;99.90
53498;DHT22;39382;47.168;16.008;2023-11-21T04:16:44;5.80;99.90
53498;DHT22;39382;47.168;16.008;2023-11-21T04:19:10;5.80;99.90
53498;DHT22;39382;47.168;16.008;2023-11-21T04:21:37;5.80;99.90
53498;DHT22;39382;47.168;16.008;2023-11-21T04:24:02;5.80;99.90
53498;DHT22;39382;47.168;16.008;2023-11-21T04:26:28;5.80;99.90
53498;DHT22;39382;47.168;16.008;2023-11-21T04:28:53;5.80;99.90
53498;DHT22;39382;47.168;16.008;2023-11-21T04:31:19;5.80;99.90
53498;DHT22;39382;47.168;16.008;2023-11-21T04:33:45;5.90;99.90
53498;DHT22;39382;47.168;16.008;2023-11-21T04:36:10;5.90;99.90
53498;DHT22;39382;47.168;16.008;2023-11-21T04:38:36;5.90;99.90
53498;DHT22;39382;47.168;16.008;2023-11-21T04:41:01;5.90;99.90
53498;DHT22;39382;47.168;16.008;2023-11-21T04:43:27;5.90;99.90
53498;DHT22;39382;47.168;16.008;2023-11-21T04:45:54;6.00;99.90
53498;DHT22;39382;47.168;16.008;2023-11-21T04:48:20;5.90;99.90
53498;DHT22;39382;47.168;16.008;2023-11-21T04:50:45;6.00;99.90
53498;DHT22;39382;47.168;16.008;2023-11-21T04:53:11;6.00;99.90
53498;DHT22;39382;47.168;16.008;2023-11-21T04:55:42;6.00;99.90
53498;DHT22;39382;47.168;16.008;2023-11-21T04:58:08;6.00;99.90
53498;DHT22;39382;47.168;16.008;2023-11-21T05:00:33;6.10;99.90
53498;DHT22;39382;47.168;16.008;2023-11-21T05:02:59;6.30;99.90
53498;DHT22;39382;47.168;16.008;2023-11-21T05:05:26;6.00;99.90
53498;DHT22;39382;47.168;16.008;2023-11-21T05:07:52;6.30;99.90
53498;DHT22;39382;47.168;16.008;2023-11-21T05:10:19;6.00;99.90
53498;DHT22;39382;47.168;16.008;2023-11-21T05:12:45;5.90;99.90
53498;DHT22;39382;47.168;16.008;2023-11-21T05:15:14;5.90;99.90
53498;DHT22;39382;47.168;16.008;2023-11-21T05:17:40;6.00;99.90
53498;DHT22;39382;47.168;16.008;2023-11-21T05:20:16;6.00;99.90
53498;DHT22;39382;47.168;16.008;2023-11-21T05:22:49;5.90;99.90
53498;DHT22;39382;47.168;16.008;2023-11-21T05:25:15;5.90;99.90
53498;DHT22;39382;47.168;16.008;2023-11-21T05:27:46;6.00;99.90
53498;DHT22;39382;47.168;16.008;2023-11-21T05:30:13;5.90;99.90
53498;DHT22;39382;47.168;16.008;2023-11-21T05:32:40;5.90;99.90
53498;DHT22;39382;47.168;16.008;2023-11-21T05:35:08;5.90;99.90
53498;DHT22;39382;47.168;16.008;2023-11-21T05:37:37;5.90;99.90
53498;DHT22;39382;47.168;16.008;2023-11-21T05:40:06;5.90;99.90
53498;DHT22;39382;47.168;16.008;2023-11-21T05:42:33;5.80;99.90
53498;DHT22;39382;47.168;16.008;2023-11-21T05:44:58;5.90;99.90
53498;DHT22;39382;47.168;16.008;2023-11-21T05:47:24;5.90;99.90
53498;DHT22;39382;47.168;16.008;2023-11-21T05:49:53;5.90;99.90
53498;DHT22;39382;47.168;16.008;2023-11-21T05:52:19;5.90;99.90
53498;DHT22;39382;47.168;16.008;2023-11-21T05:54:46;6.00;99.90
53498;DHT22;39382;47.168;16.008;2023-11-21T05:57:11;5.90;99.90
53498;DHT22;39382;47.168;16.008;2023-11-21T05:59:37;5.90;99.90
53498;DHT22;39382;47.168;16.008;2023-11-21T06:02:02;5.90;99.90
53498;DHT22;39382;47.168;16.008;2023-11-21T06:04:28;5.90;99.90
53498;DHT22;39382;47.168;16.008;2023-11-21T06:06:54;5.90;99.90
53498;DHT22;39382;47.168;16.008;2023-11-21T06:09:20;5.90;99.90
53498;DHT22;39382;47.168;16.008;2023-11-21T06:11:46;5.90;99.90
53498;DHT22;39382;47.168;16.008;2023-11-21T06:14:11;6.00;99.90
53498;DHT22;39382;47.168;16.008;2023-11-21T06:16:37;6.00;99.90
53498;DHT22;39382;47.168;16.008;2023-11-21T06:19:03;6.10;99.90
53498;DHT22;39382;47.168;16.008;2023-11-21T06:21:28;6.00;99.90
53498;DHT22;39382;47.168;16.008;2023-11-21T06:23:54;6.50;99.90
53498;DHT22;39382;47.168;16.008;2023-11-21T06:26:22;6.40;99.90
53498;DHT22;39382;47.168;16.008;2023-11-21T06:28:48;6.40;99.90
53498;DHT22;39382;47.168;16.008;2023-11-21T06:31:16;6.30;99.90
53498;DHT22;39382;47.168;16.008;2023-11-21T06:33:42;6.30;99.90
53498;DHT22;39382;47.168;16.008;2023-11-21T06:36:08;6.20;99.90
53498;DHT22;39382;47.168;16.008;2023-11-21T06:38:37;6.30;99.90
53498;DHT22;39382;47.168;16.008;2023-11-21T06:41:03;6.20;99.90
53498;DHT22;39382;47.168;16.008;2023-11-21T06:43:29;6.20;99.90
53498;DHT22;39382;47.168;16.008;2023-11-21T06:45:57;6.10;99.90
53498;DHT22;39382;47.168;16.008;2023-11-21T06:48:22;6.20;99.90
53498;DHT22;39382;47.168;16.008;2023-11-21T06:50:48;6.30;99.90
53498;DHT22;39382;47.168;16.008;2023-11-21T06:53:14;6.20;99.90
53498;DHT22;39382;47.168;16.008;2023-11-21T06:55:40;6.20;99.90
53498;DHT22;39382;47.168;16.008;2023-11-21T06:58:05;6.20;99.90
53498;DHT22;39382;47.168;16.008;2023-11-21T07:00:31;6.20;99.90
53498;DHT22;39382;47.168;16.008;2023-11-21T07:02:57;6.20;99.90
53498;DHT22;39382;47.168;16.008;2023-11-21T07:05:22;6.20;99.90
53498;DHT22;39382;47.168;16.008;2023-11-21T07:07:48;6.30;99.90
53498;DHT22;39382;47.168;16.008;2023-11-21T07:10:14;6.30;99.90
53498;DHT22;39382;47.168;16.008;2023-11-21T07:12:40;6.30;99.90
53498;DHT22;39382;47.168;16.008;2023-11-21T07:15:07;6.30;99.90
53498;DHT22;39382;47.168;16.008;2023-11-21T07:17:35;6.30;99.90
53498;DHT22;39382;47.168;16.008;2023-11-21T07:20:01;6.30;99.90
53498;DHT22;39382;47.168;16.008;2023-11-21T07:22:27;6.40;99.90
53498;DHT22;39382;47.168;16.008;2023-11-21T07:24:52;6.40;99.90
53498;DHT22;39382;47.168;16.008;2023-11-21T07:27:18;6.40;99.90
53498;DHT22;39382;47.168;16.008;2023-11-21T07:29:44;6.40;99.90
53498;DHT22;39382;47.168;16.008;2023-11-21T07:32:10;6.50;99.90
53498;DHT22;39382;47.168;16.008;2023-11-21T07:34:36;6.60;99.90
53498;DHT22;39382;47.168;16.008;2023-11-21T07:37:02;6.60;99.90
53498;DHT22;39382;47.168;16.008;2023-11-21T07:39:28;6.60;99.90
53498;DHT22;39382;47.168;16.008;2023-11-21T07:41:54;6.60;99.90
53498;DHT22;39382;47.168;16.008;2023-11-21T07:44:20;6.70;99.90
53498;DHT22;39382;47.168;16.008;2023-11-21T07:46:46;6.70;99.90
53498;DHT22;39382;47.168;16.008;2023-11-21T07:49:12;6.70;99.90
53498;DHT22;39382;47.168;16.008;2023-11-21T07:51:41;6.80;99.90
53498;DHT22;39382;47.168;16.008;2023-11-21T07:54:07;6.80;99.90
53498;DHT22;39382;47.168;16.008;2023-11-21T07:56:33;6.80;99.90
53498;DHT22;39382;47.168;16.008;2023-11-21T07:58:58;6.80;99.90
53498;DHT22;39382;47.168;16.008;2023-11-21T08:01:24;6.80;99.90
53498;DHT22;39382;47.168;16.008;2023-11-21T08:03:50;7.00;99.90
53498;DHT22;39382;47.168;16.008;2023-11-21T08:06:18;7.00;99.90
53498;DHT22;39382;47.168;16.008;2023-11-21T08:08:43;7.00;99.90
53498;DHT22;39382;47.168;16.008;2023-11-21T08:11:09;7.10;99.90
53498;DHT22;39382;47.168;16.008;2023-11-21T08:13:35;7.10;99.90
53498;DHT22;39382;47.168;16.008;2023-11-21T08:16:01;7.70;99.90
53498;DHT22;39382;47.168;16.008;2023-11-21T08:18:30;7.60;99.90
53498;DHT22;39382;47.168;16.008;2023-11-21T08:20:56;7.50;99.90
53498;DHT22;39382;47.168;16.008;2023-11-21T08:23:22;7.50;99.90
53498;DHT22;39382;47.168;16.008;2023-11-21T08:25:54;7.50;99.90
53498;DHT22;39382;47.168;16.008;2023-11-21T08:28:20;7.50;99.90
53498;DHT22;39382;47.168;16.008;2023-11-21T08:30:47;7.60;99.90
53498;DHT22;39382;47.168;16.008;2023-11-21T08:33:13;7.50;99.90
53498;DHT22;39382;47.168;16.008;2023-11-21T08:35:38;7.60;99.90
53498;DHT22;39382;47.168;16.008;2023-11-21T08:38:04;7.60;99.90
53498;DHT22;39382;47.168;16.008;2023-11-21T08:40:30;7.70;99.90
53498;DHT22;39382;47.168;16.008;2023-11-21T08:42:56;7.80;99.90
53498;DHT22;39382;47.168;16.008;2023-11-21T08:45:24;7.80;99.90
53498;DHT22;39382;47.168;16.008;2023-11-21T08:47:51;7.80;99.90
53498;DHT22;39382;47.168;16.008;2023-11-21T08:50:17;7.90;99.90
53498;DHT22;39382;47.168;16.008;2023-11-21T08:52:44;8.00;99.90
53498;DHT22;39382;47.168;16.008;2023-11-21T08:55:11;8.10;99.90
53498;DHT22;39382;47.168;16.008;2023-11-21T08:57:38;8.10;99.90
53498;DHT22;39382;47.168;16.008;2023-11-21T09:00:05;8.10;99.90
53498;DHT22;39382;47.168;16.008;2023-11-21T09:02:35;8.10;99.90
53498;DHT22;39382;47.168;16.008;2023-11-21T09:05:05;8.20;99.90
53498;DHT22;39382;47.168;16.008;2023-11-21T09:07:31;8.20;99.90
53498;DHT22;39382;47.168;16.008;2023-11-21T09:09:57;8.30;99.90
53498;DHT22;39382;47.168;16.008;2023-11-21T09:12:22;8.20;99.90
53498;DHT22;39382;47.168;16.008;2023-11-21T09:14:50;8.30;99.90
53498;DHT22;39382;47.168;16.008;2023-11-21T09:17:16;8.40;99.90
53498;DHT22;39382;47.168;16.008;2023-11-21T09:19:42;8.40;99.90
53498;DHT22;39382;47.168;16.008;2023-11-21T09:22:16;8.50;99.90
53498;DHT22;39382;47.168;16.008;2023-11-21T09:24:42;8.60;99.90
53498;DHT22;39382;47.168;16.008;2023-11-21T09:27:08;8.70;99.90
53498;DHT22;39382;47.168;16.008;2023-11-21T09:29:35;9.10;99.90
53498;DHT22;39382;47.168;16.008;2023-11-21T09:32:00;10.40;99.90
53498;DHT22;39382;47.168;16.008;2023-11-21T09:34:27;10.80;99.90
53498;DHT22;39382;47.168;16.008;2023-11-21T09:36:52;10.90;99.90
53498;DHT22;39382;47.168;16.008;2023-11-21T09:39:19;10.90;99.90
53498;DHT22;39382;47.168;16.008;2023-11-21T09:44:32;10.60;99.90
53498;DHT22;39382;47.168;16.008;2023-11-21T09:46:59;10.40;99.90
53498;DHT22;39382;47.168;16.008;2023-11-21T09:49:26;10.20;99.90
53498;DHT22;39382;47.168;16.008;2023-11-21T09:51:55;10.00;99.90
53498;DHT22;39382;47.168;16.008;2023-11-21T09:54:24;10.00;99.90
53498;DHT22;39382;47.168;16.008;2023-11-21T09:56:50;10.00;99.90
53498;DHT22;39382;47.168;16.008;2023-11-21T09:59:16;9.90;99.90
53498;DHT22;39382;47.168;16.008;2023-11-21T10:01:42;10.00;99.90
53498;DHT22;39382;47.168;16.008;2023-11-21T10:04:09;10.00;99.90
53498;DHT22;39382;47.168;16.008;2023-11-21T10:06:41;10.00;99.90
53498;DHT22;39382;47.168;16.008;2023-11-21T10:09:12;10.00;99.90
53498;DHT22;39382;47.168;16.008;2023-11-21T10:11:42;10.00;99.90
53498;DHT22;39382;47.168;16.008;2023-11-21T10:14:11;10.60;99.90
53498;DHT22;39382;47.168;16.008;2023-11-21T10:16:39;10.80;99.90
53498;DHT22;39382;47.168;16.008;2023-11-21T10:19:08;10.80;99.90
53498;DHT22;39382;47.168;16.008;2023-11-21T10:21:35;10.60;99.90
53498;DHT22;39382;47.168;16.008;2023-11-21T10:24:00;10.40;99.90
53498;DHT22;39382;47.168;16.008;2023-11-21T10:26:28;10.20;99.90
53498;DHT22;39382;47.168;16.008;2023-11-21T10:29:00;10.10;99.90
53498;DHT22;39382;47.168;16.008;2023-11-21T10:31:31;10.00;99.90
53498;DHT22;39382;47.168;16.008;2023-11-21T10:34:19;9.90;99.90
53498;DHT22;39382;47.168;16.008;2023-11-21T10:36:46;9.80;99.90
53498;DHT22;39382;47.168;16.008;2023-11-21T10:39:19;9.90;99.90
53498;DHT22;39382;47.168;16.008;2023-11-21T10:41:45;9.90;99.90
53498;DHT22;39382;47.168;16.008;2023-11-21T10:44:17;10.00;99.90
53498;DHT22;39382;47.168;16.008;2023-11-21T10:46:54;9.90;99.90
53498;DHT22;39382;47.168;16.008;2023-11-21T10:49:25;10.10;99.90
53498;DHT22;39382;47.168;16.008;2023-11-21T10:51:51;10.00;99.90
53498;DHT22;39382;47.168;16.008;2023-11-21T10:54:23;10.10;99.90
53498;DHT22;39382;47.168;16.008;2023-11-21T10:56:50;10.10;99.90
53498;DHT22;39382;47.168;16.008;2023-11-21T10:59:19;10.10;99.90
53498;DHT22;39382;47.168;16.008;2023-11-21T11:01:47;10.10;99.90
53498;DHT22;39382;47.168;16.008;2023-11-21T11:04:18;10.00;99.90
53498;DHT22;39382;47.168;16.008;2023-11-21T11:06:44;10.00;99.90
53498;DHT22;39382;47.168;16.008;2023-11-21T11:09:13;10.10;99.90
53498;DHT22;39382;47.168;16.008;2023-11-21T11:11:40;10.10;99.90
53498;DHT22;39382;47.168;16.008;2023-11-21T11:14:10;10.10;99.90
53498;DHT22;39382;47.168;16.008;2023-11-21T11:16:37;10.10;99.90
53498;DHT22;39382;47.168;16.008;2023-11-21T11:19:05;10.10;99.90
53498;DHT22;39382;47.168;16.008;2023-11-21T11:26:51;10.10;99.90
53498;DHT22;39382;47.168;16.008;2023-11-21T11:30:05;10.10;99.90
53498;DHT22;39382;47.168;16.008;2023-11-21T11:32:25;10.10;99.90
53498;DHT22;39382;47.168;16.008;2023-11-21T11:35:06;10.20;99.90
53498;DHT22;39382;47.168;16.008;2023-11-21T11:37:33;10.30;99.90
53498;DHT22;39382;47.168;16.008;2023-11-21T11:39:59;10.30;99.90
53498;DHT22;39382;47.168;16.008;2023-11-21T11:42:26;10.40;99.90
53498;DHT22;39382;47.168;16.008;2023-11-21T11:44:52;10.40;99.90
53498;DHT22;39382;47.168;16.008;2023-11-21T11:50:03;10.50;99.90
53498;DHT22;39382;47.168;16.008;2023-11-21T11:52:37;10.50;99.90
53498;DHT22;39382;47.168;16.008;2023-11-21T11:55:08;10.50;99.90
53498;DHT22;39382;47.168;16.008;2023-11-21T11:57:35;10.40;99.90
53498;DHT22;39382;47.168;16.008;2023-11-21T12:00:14;10.40;99.90
53498;DHT22;39382;47.168;16.008;2023-11-21T12:02:49;10.40;99.90
53498;DHT22;39382;47.168;16.008;2023-11-21T12:05:16;10.50;99.90
53498;DHT22;39382;47.168;16.008;2023-11-21T12:07:48;10.70;99.90
53498;DHT22;39382;47.168;16.008;2023-11-21T12:10:16;10.80;99.90
53498;DHT22;39382;47.168;16.008;2023-11-21T12:12:51;10.90;99.90
53498;DHT22;39382;47.168;16.008;2023-11-21T12:15:18;10.90;99.90
53498;DHT22;39382;47.168;16.008;2023-11-21T12:17:45;10.90;99.90
53498;DHT22;39382;47.168;16.008;2023-11-21T12:20:15;10.90;99.90
53498;DHT22;39382;47.168;16.008;2023-11-21T12:22:47;10.80;99.90
53498;DHT22;39382;47.168;16.008;2023-11-21T12:25:24;10.90;99.90
53498;DHT22;39382;47.168;16.008;2023-11-21T12:27:51;10.90;99.90
53498;DHT22;39382;47.168;16.008;2023-11-21T12:30:19;11.00;99.90
53498;DHT22;39382;47.168;16.008;2023-11-21T12:32:47;11.00;99.90
53498;DHT22;39382;47.168;16.008;2023-11-21T12:35:14;10.90;99.90
53498;DHT22;39382;47.168;16.008;2023-11-21T12:37:40;10.90;99.90
53498;DHT22;39382;47.168;16.008;2023-11-21T12:40:09;11.00;99.90
53498;DHT22;39382;47.168;16.008;2023-11-21T12:42:45;11.00;99.90
53498;DHT22;39382;47.168;16.008;2023-11-21T12:45:23;10.70;99.90
53498;DHT22;39382;47.168;16.008;2023-11-21T12:47:52;10.90;99.90
53498;DHT22;39382;47.168;16.008;2023-11-21T12:50:22;10.90;99.90
53498;DHT22;39382;47.168;16.008;2023-11-21T12:52:50;10.70;99.90
53498;DHT22;39382;47.168;16.008;2023-11-21T12:55:21;10.60;99.90
53498;DHT22;39382;47.168;16.008;2023-11-21T12:57:54;10.60;99.90
53498;DHT22;39382;47.168;16.008;2023-11-21T13:00:28;10.60;99.90
53498;DHT22;39382;47.168;16.008;2023-11-21T13:02:58;10.70;99.90
53498;DHT22;39382;47.168;16.008;2023-11-21T13:05:38;10.70;99.90
53498;DHT22;39382;47.168;16.008;2023-11-21T13:08:06;10.70;99.90
53498;DHT22;39382;47.168;16.008;2023-11-21T13:10:39;11.50;99.90
53498;DHT22;39382;47.168;16.008;2023-11-21T13:13:06;11.30;99.90
53498;DHT22;39382;47.168;16.008;2023-11-21T13:15:36;11.20;99.90
53498;DHT22;39382;47.168;16.008;2023-11-21T13:18:03;11.10;99.90
53498;DHT22;39382;47.168;16.008;2023-11-21T13:20:29;10.90;99.90
53498;DHT22;39382;47.168;16.008;2023-11-21T13:22:58;11.00;99.90
53498;DHT22;39382;47.168;16.008;2023-11-21T13:25:25;10.90;99.90
53498;DHT22;39382;47.168;16.008;2023-11-21T13:27:58;10.90;99.90
53498;DHT22;39382;47.168;16.008;2023-11-21T13:30:28;10.90;99.90
53498;DHT22;39382;47.168;16.008;2023-11-21T13:33:03;10.90;99.90
53498;DHT22;39382;47.168;16.008;2023-11-21T13:35:34;11.50;99.90
53498;DHT22;39382;47.168;16.008;2023-11-21T13:38:08;11.60;99.90
53498;DHT22;39382;47.168;16.008;2023-11-21T13:40:35;11.50;99.90
53498;DHT22;39382;47.168;16.008;2023-11-21T13:43:08;11.70;99.90
53498;DHT22;39382;47.168;16.008;2023-11-21T13:45:42;11.80;99.90
53498;DHT22;39382;47.168;16.008;2023-11-21T13:48:09;11.90;99.90
53498;DHT22;39382;47.168;16.008;2023-11-21T13:50:53;12.10;99.90
53498;DHT22;39382;47.168;16.008;2023-11-21T13:53:34;12.00;99.90
53498;DHT22;39382;47.168;16.008;2023-11-21T13:56:03;11.90;99.90
53498;DHT22;39382;47.168;16.008;2023-11-21T13:58:28;11.80;99.90
53498;DHT22;39382;47.168;16.008;2023-11-21T14:01:13;11.60;99.90
53498;DHT22;39382;47.168;16.008;2023-11-21T14:03:58;11.20;99.90
53498;DHT22;39382;47.168;16.008;2023-11-21T14:06:51;10.90;99.90
53498;DHT22;39382;47.168;16.008;2023-11-21T14:09:22;10.70;99.90
53498;DHT22;39382;47.168;16.008;2023-11-21T14:11:50;10.60;99.90
53498;DHT22;39382;47.168;16.008;2023-11-21T14:14:17;10.40;99.90
53498;DHT22;39382;47.168;16.008;2023-11-21T14:16:43;10.50;99.90
53498;DHT22;39382;47.168;16.008;2023-11-21T14:19:10;10.40;99.90
53498;DHT22;39382;47.168;16.008;2023-11-21T14:21:44;10.30;99.90
53498;DHT22;39382;47.168;16.008;2023-11-21T14:24:11;10.20;99.90
53498;DHT22;39382;47.168;16.008;2023-11-21T14:26:41;10.70;99.90
53498;DHT22;39382;47.168;16.008;2023-11-21T14:29:08;10.50;99.90
53498;DHT22;39382;47.168;16.008;2023-11-21T14:31:34;10.40;99.90
53498;DHT22;39382;47.168;16.008;2023-11-21T14:34:00;10.30;99.90
53498;DHT22;39382;47.168;16.008;2023-11-21T14:36:31;10.10;99.90
53498;DHT22;39382;47.168;16.008;2023-11-21T14:38:57;10.00;99.90
53498;DHT22;39382;47.168;16.008;2023-11-21T14:41:22;9.90;99.90
53498;DHT22;39382;47.168;16.008;2023-11-21T14:43:53;9.80;99.90
53498;DHT22;39382;47.168;16.008;2023-11-21T14:46:19;9.70;99.90
53498;DHT22;39382;47.168;16.008;2023-11-21T14:48:45;9.60;99.90
53498;DHT22;39382;47.168;16.008;2023-11-21T14:51:25;9.50;99.90
53498;DHT22;39382;47.168;16.008;2023-11-21T14:53:59;9.50;99.90
53498;DHT22;39382;47.168;16.008;2023-11-21T14:56:35;9.50;99.90
53498;DHT22;39382;47.168;16.008;2023-11-21T14:59:03;9.50;99.90
53498;DHT22;39382;47.168;16.008;2023-11-21T15:01:37;9.40;99.90
53498;DHT22;39382;47.168;16.008;2023-11-21T15:04:11;9.40;99.90
53498;DHT22;39382;47.168;16.008;2023-11-21T15:06:49;9.40;99.90
53498;DHT22;39382;47.168;16.008;2023-11-21T15:09:16;9.30;99.90
53498;DHT22;39382;47.168;16.008;2023-11-21T15:11:48;9.30;99.90
53498;DHT22;39382;47.168;16.008;2023-11-21T15:14:13;9.40;99.90
53498;DHT22;39382;47.168;16.008;2023-11-21T15:16:45;9.30;99.90
53498;DHT22;39382;47.168;16.008;2023-11-21T15:19:16;9.20;99.90
53498;DHT22;39382;47.168;16.008;2023-11-21T15:21:44;9.20;99.90
53498;DHT22;39382;47.168;16.008;2023-11-21T15:24:12;9.20;99.90
53498;DHT22;39382;47.168;16.008;2023-11-21T15:26:37;9.10;99.90
53498;DHT22;39382;47.168;16.008;2023-11-21T15:29:04;9.10;99.90
53498;DHT22;39382;47.168;16.008;2023-11-21T15:31:30;9.10;99.90
53498;DHT22;39382;47.168;16.008;2023-11-21T15:33:55;9.10;99.90
53498;DHT22;39382;47.168;16.008;2023-11-21T15:36:25;9.10;99.90
53498;DHT22;39382;47.168;16.008;2023-11-21T15:38:52;9.00;99.90
53498;DHT22;39382;47.168;16.008;2023-11-21T15:41:18;8.90;99.90
53498;DHT22;39382;47.168;16.008;2023-11-21T15:43:43;9.00;99.90